Oliver Hazard Perry — KOHZ — position and weather

sailwx.info

Track history (hours):
 
Tides and Currents Weather Stations Pressure Air Temp Water Temp Dewpoint Dewpoint Depression Visibility Wind Speed Wind Dir Waves Ship Positions

Oliver Hazard Perry

Owner: Oliver Hazard Perry Rhode Island, Newport, RI. More information available from US FCC via Universal Licensing System and Coast Guard Vessel Documentation Center.

Last reported at 2017-Apr-05 06:35 UTC. Time now 2017-Apr-26 11:45 UTC.
Position N 28°49' W 077°03'.
Warning: this ship's position is 21 days out of date.

Length 61 m; draft 3.5 m.

Type: Sailing vessel. MMSI: 367658110.

Date/timePositionNaut miles runAvg speedWind from/ knotsBaromVisibWave heightAir tempDewpointWater temp
2017-Apr-05 06:35N 28°49' W 077°03'1 6.8
2017-Apr-05 06:29N 28°49' W 077°03'9 6.7
2017-Apr-05 05:08N 28°46' W 077°13'204 5.9
2017-Apr-03 18:36N 26°23' W 079°57'1 8.1
2017-Apr-03 18:25N 26°21' W 079°58'4 8.5
2017-Apr-03 18:00N 26°18' W 079°59'4 8.6
2017-Apr-03 17:30N 26°14' W 080°01'4 8.4
2017-Apr-03 17:00N 26°10' W 080°02'510.0
2017-Apr-03 16:30N 26°06' W 080°05'2 3.8
2017-Apr-03 16:00N 26°06' W 080°07'0 0.1
2017-Apr-03 15:28N 26°06' W 080°07'0 0.0
2017-Apr-03 14:58N 26°06' W 080°07'0 0.0
2017-Apr-03 14:28N 26°06' W 080°07'0 0.0
2017-Apr-03 13:24N 26°06' W 080°07'0 0.0
2017-Apr-03 12:58N 26°06' W 080°07'0 0.0
2017-Apr-03 12:28N 26°06' W 080°07'0 0.0
2017-Apr-03 11:55N 26°06' W 080°07'0 0.0
2017-Apr-03 11:30N 26°06' W 080°07'0 0.0
2017-Apr-03 10:55N 26°06' W 080°07'0 0.0
2017-Apr-03 10:25N 26°06' W 080°07'0 0.0
2017-Apr-03 10:00N 26°06' W 080°07'0 0.0
2017-Apr-03 09:25N 26°06' W 080°07'0 0.0
2017-Apr-03 08:55N 26°06' W 080°07'0 0.0
2017-Apr-03 08:25N 26°06' W 080°07'0 0.0
2017-Apr-03 07:57N 26°06' W 080°07'0 0.0
2017-Apr-03 07:28N 26°06' W 080°07'0 0.0
2017-Apr-03 06:31N 26°06' W 080°07'0 0.1
2017-Apr-03 06:28N 26°06' W 080°07'0 0.0
2017-Apr-03 05:58N 26°06' W 080°07'0 0.0
2017-Apr-03 05:31N 26°06' W 080°07'0 0.0
2017-Apr-03 05:00N 26°06' W 080°07'0 0.0
2017-Apr-03 04:31N 26°06' W 080°07'0 0.0
2017-Apr-03 03:58N 26°06' W 080°07'0 0.0
2017-Apr-03 03:28N 26°06' W 080°07'0 0.0
2017-Apr-03 02:55N 26°06' W 080°07'0 0.0
2017-Apr-03 02:30N 26°06' W 080°07'0 0.0
2017-Apr-03 01:58N 26°06' W 080°07'0 0.0
2017-Apr-03 01:19N 26°06' W 080°07'0 0.0
2017-Apr-03 00:58N 26°06' W 080°07'0 0.0
2017-Apr-03 00:25N 26°06' W 080°07'0 0.0
2017-Apr-02 23:49N 26°06' W 080°07'0 0.0
2017-Apr-02 23:25N 26°06' W 080°07'0 0.0
2017-Apr-02 23:00N 26°06' W 080°07'0 0.0
2017-Apr-02 22:19N 26°06' W 080°07'0 0.0
2017-Apr-02 22:00N 26°06' W 080°07'0 0.0
2017-Apr-02 21:31N 26°06' W 080°07'0 0.0
2017-Apr-02 21:01N 26°06' W 080°07'0 0.0
2017-Apr-02 20:25N 26°06' W 080°07'0 0.0
2017-Apr-02 19:57N 26°06' W 080°07'0 0.0
2017-Apr-02 19:30N 26°06' W 080°07'0 0.0
2017-Apr-02 19:00N 26°06' W 080°07'0 0.0
2017-Apr-02 18:30N 26°06' W 080°07'0 0.0
2017-Apr-02 18:00N 26°06' W 080°07'0 0.0
2017-Apr-02 17:30N 26°06' W 080°07'0 0.0
2017-Apr-02 17:00N 26°06' W 080°07'0 0.0
2017-Apr-02 16:18N 26°06' W 080°07'0 0.0
2017-Apr-02 16:00N 26°06' W 080°07'0 0.0
2017-Apr-02 15:30N 26°06' W 080°07'0 0.0
2017-Apr-02 15:00N 26°06' W 080°07'0 0.0
2017-Apr-02 14:00N 26°06' W 080°07'0 0.0
2017-Apr-02 13:27N 26°06' W 080°07'0 0.0
2017-Apr-02 13:01N 26°06' W 080°07'0 0.0
2017-Apr-02 12:30N 26°06' W 080°07'0 0.0
2017-Apr-02 12:00N 26°06' W 080°07'0 0.0
2017-Apr-02 11:30N 26°06' W 080°07'0 0.0
2017-Apr-02 11:00N 26°06' W 080°07'0 0.0
2017-Apr-02 10:30N 26°06' W 080°07'0 0.0
2017-Apr-02 10:00N 26°06' W 080°07'0 0.0
2017-Apr-02 09:30N 26°06' W 080°07'0 0.0
2017-Apr-02 09:00N 26°06' W 080°07'0 0.0
2017-Apr-02 08:30N 26°06' W 080°07'0 0.0
2017-Apr-02 08:01N 26°06' W 080°07'0 0.0
2017-Apr-02 07:30N 26°06' W 080°07'0 0.0
2017-Apr-02 07:00N 26°06' W 080°07'0 0.0
2017-Apr-02 06:30N 26°06' W 080°07'0 0.0
2017-Apr-02 06:00N 26°06' W 080°07'0 0.0
2017-Apr-02 05:30N 26°06' W 080°07'0 0.0
2017-Apr-02 05:00N 26°06' W 080°07'0 0.0
2017-Apr-02 04:30N 26°06' W 080°07'0 0.0
2017-Apr-02 04:00N 26°06' W 080°07'0 0.0
2017-Apr-02 03:30N 26°06' W 080°07'0 0.0
2017-Apr-02 02:57N 26°06' W 080°07'0 0.0
2017-Apr-02 02:30N 26°06' W 080°07'0 0.0
2017-Apr-02 02:00N 26°06' W 080°07'0 0.0
2017-Apr-02 01:30N 26°06' W 080°07'0 0.0
2017-Apr-02 01:00N 26°06' W 080°07'0 0.0
2017-Apr-02 00:30N 26°06' W 080°07'0 0.0
2017-Apr-02 00:00N 26°06' W 080°07'0 0.0
2017-Apr-01 23:30N 26°06' W 080°07'0 0.0
2017-Apr-01 23:00N 26°06' W 080°07'0 0.0
2017-Apr-01 22:30N 26°06' W 080°07'0 0.0
2017-Apr-01 22:00N 26°06' W 080°07'0 0.0
2017-Apr-01 21:30N 26°06' W 080°07'0 0.0
2017-Apr-01 21:00N 26°06' W 080°07'0 0.0
2017-Apr-01 20:30N 26°06' W 080°07'0 0.0
2017-Apr-01 20:00N 26°06' W 080°07'0 0.0
2017-Apr-01 19:30N 26°06' W 080°07'0 0.0
2017-Apr-01 19:00N 26°06' W 080°07'0 0.0
2017-Apr-01 18:30N 26°06' W 080°07'0 0.0
2017-Apr-01 17:30N 26°06' W 080°07'0 0.0
2017-Apr-01 17:00N 26°06' W 080°07'0 0.0
2017-Apr-01 16:30N 26°06' W 080°07'0 0.0
2017-Apr-01 16:00N 26°06' W 080°07'0 0.0
2017-Apr-01 15:24N 26°06' W 080°07'0 0.0
2017-Apr-01 15:00N 26°06' W 080°07'0 0.0
2017-Apr-01 14:00N 26°06' W 080°07'0 0.0
2017-Apr-01 13:27N 26°06' W 080°07'0 0.0
2017-Apr-01 13:00N 26°06' W 080°07'0 0.0
2017-Apr-01 12:30N 26°06' W 080°07'0 0.0
2017-Apr-01 12:00N 26°06' W 080°07'0 0.0
2017-Apr-01 11:30N 26°06' W 080°07'0 0.0
2017-Apr-01 11:00N 26°06' W 080°07'0 0.0
2017-Apr-01 10:30N 26°06' W 080°07'0 0.0
2017-Apr-01 10:00N 26°06' W 080°07'0 0.0
2017-Apr-01 09:30N 26°06' W 080°07'0 0.0
2017-Apr-01 09:00N 26°06' W 080°07'0 0.0
2017-Apr-01 08:30N 26°06' W 080°07'0 0.0
2017-Apr-01 08:00N 26°06' W 080°07'0 0.0
2017-Apr-01 07:30N 26°06' W 080°07'0 0.0
2017-Apr-01 07:00N 26°06' W 080°07'0 0.0
2017-Apr-01 06:30N 26°06' W 080°07'0 0.0
2017-Apr-01 06:00N 26°06' W 080°07'0 0.0
2017-Apr-01 05:30N 26°06' W 080°07'0 0.0
2017-Apr-01 05:00N 26°06' W 080°07'0 0.0
2017-Apr-01 04:30N 26°06' W 080°07'0 0.0
2017-Apr-01 04:00N 26°06' W 080°07'0 0.0
2017-Apr-01 03:30N 26°06' W 080°07'0 0.0
2017-Apr-01 03:00N 26°06' W 080°07'0 0.0
2017-Apr-01 02:30N 26°06' W 080°07'0 0.0
2017-Apr-01 02:00N 26°06' W 080°07'0 0.0
2017-Apr-01 01:30N 26°06' W 080°07'0 0.0
2017-Apr-01 01:00N 26°06' W 080°07'0 0.0
2017-Apr-01 00:30N 26°06' W 080°07'0 0.0
2017-Apr-01 00:00N 26°06' W 080°07'0 0.0
2017-Mar-31 23:30N 26°06' W 080°07'0 0.0
2017-Mar-31 23:00N 26°06' W 080°07'0 0.0
2017-Mar-31 22:27N 26°06' W 080°07'0 0.0
2017-Mar-31 22:00N 26°06' W 080°07'0 0.0
2017-Mar-31 21:30N 26°06' W 080°07'0 0.0
2017-Mar-31 21:00N 26°06' W 080°07'0 0.0
2017-Mar-31 20:30N 26°06' W 080°07'0 0.0
2017-Mar-31 20:00N 26°06' W 080°07'0 0.0
2017-Mar-31 19:30N 26°06' W 080°07'0 0.0
2017-Mar-31 19:00N 26°06' W 080°07'0 0.0
2017-Mar-31 18:30N 26°06' W 080°07'0 0.0
2017-Mar-31 18:00N 26°06' W 080°07'0 0.0
2017-Mar-31 17:30N 26°06' W 080°07'0 0.0
2017-Mar-31 17:00N 26°06' W 080°07'0 0.0
2017-Mar-31 16:30N 26°06' W 080°07'0 0.0
2017-Mar-31 16:00N 26°06' W 080°07'0 0.0
2017-Mar-31 15:27N 26°06' W 080°07'0 0.0
2017-Mar-31 15:00N 26°06' W 080°07'0 0.0
2017-Mar-31 14:00N 26°06' W 080°07'0 0.0
2017-Mar-31 13:30N 26°06' W 080°07'0 0.0
2017-Mar-31 13:00N 26°06' W 080°07'0 0.0
2017-Mar-31 12:30N 26°06' W 080°07'0 0.0
2017-Mar-31 12:00N 26°06' W 080°07'0 0.0
2017-Mar-31 11:24N 26°06' W 080°07'0 0.0
2017-Mar-31 10:54N 26°06' W 080°07'0 0.0
2017-Mar-31 10:18N 26°06' W 080°07'0 0.0
2017-Mar-31 10:00N 26°06' W 080°07'0 0.0
2017-Mar-31 09:30N 26°06' W 080°07'0 0.0
2017-Mar-31 09:00N 26°06' W 080°07'0 0.0
2017-Mar-31 08:30N 26°06' W 080°07'0 0.0
2017-Mar-31 08:00N 26°06' W 080°07'0 0.0
2017-Mar-31 07:30N 26°06' W 080°07'0 0.0
2017-Mar-31 06:57N 26°06' W 080°07'0 0.0
2017-Mar-31 06:30N 26°06' W 080°07'0 0.0
2017-Mar-31 05:57N 26°06' W 080°07'0 0.0
2017-Mar-31 05:27N 26°06' W 080°07'0 0.0
2017-Mar-31 04:57N 26°06' W 080°07'0 0.0
2017-Mar-31 04:30N 26°06' W 080°07'0 0.0
2017-Mar-31 03:30N 26°06' W 080°07'0 0.0
2017-Mar-31 02:33N 26°06' W 080°07'0 0.0
2017-Mar-31 01:33N 26°06' W 080°07'0 0.0
2017-Mar-31 00:33N 26°06' W 080°07'0 0.0
2017-Mar-30 23:33N 26°06' W 080°07'0 0.0
2017-Mar-30 22:33N 26°06' W 080°07'0 0.0
2017-Mar-30 21:33N 26°06' W 080°07'0 0.0
2017-Mar-30 20:33N 26°06' W 080°07'0 0.0
2017-Mar-30 19:33N 26°06' W 080°07'0 0.0
2017-Mar-30 18:33N 26°06' W 080°07'0 0.0
2017-Mar-30 17:33N 26°06' W 080°07'0 0.0
2017-Mar-30 16:33N 26°06' W 080°07'0 0.0
2017-Mar-30 15:33N 26°06' W 080°07'0 0.0
2017-Mar-30 14:33N 26°06' W 080°07'0 0.0
2017-Mar-30 13:33N 26°06' W 080°07'0 0.0
2017-Mar-30 12:33N 26°06' W 080°07'0 0.0
2017-Mar-30 11:30N 26°06' W 080°07'0 0.0
2017-Mar-30 10:30N 26°06' W 080°07'0 0.0
2017-Mar-30 09:33N 26°06' W 080°07'0 0.0
2017-Mar-30 08:30N 26°06' W 080°07'0 0.0
2017-Mar-30 07:33N 26°06' W 080°07'0 0.0
2017-Mar-30 06:33N 26°06' W 080°07'0 0.0
2017-Mar-30 05:33N 26°06' W 080°07'0 0.0
2017-Mar-30 04:33N 26°06' W 080°07'0 0.0
2017-Mar-30 03:33N 26°06' W 080°07'0 0.0
2017-Mar-30 02:33N 26°06' W 080°07'0 0.0
2017-Mar-30 01:33N 26°06' W 080°07'0 0.0
2017-Mar-30 00:33N 26°06' W 080°07'0 0.0
2017-Mar-29 23:33N 26°06' W 080°07'0 0.0
2017-Mar-29 22:33N 26°06' W 080°07'0 0.0
2017-Mar-29 21:33N 26°06' W 080°07'0 0.0
2017-Mar-29 20:33N 26°06' W 080°07'0 0.0
2017-Mar-29 19:33N 26°06' W 080°07'0 0.0
2017-Mar-29 18:33N 26°06' W 080°07'0 0.0
2017-Mar-29 17:33N 26°06' W 080°07'0 0.0
2017-Mar-29 16:33N 26°06' W 080°07'0 0.0
2017-Mar-29 15:30N 26°06' W 080°07'0 0.0
2017-Mar-29 14:33N 26°06' W 080°07'0 0.0
2017-Mar-29 13:30N 26°06' W 080°07'0 0.0
2017-Mar-29 12:33N 26°06' W 080°07'0 0.0
2017-Mar-29 11:33N 26°06' W 080°07'0 0.0
2017-Mar-29 10:33N 26°06' W 080°07'0 0.0
2017-Mar-29 09:27N 26°06' W 080°07'0 0.0
2017-Mar-29 08:33N 26°06' W 080°07'0 0.0
2017-Mar-29 07:33N 26°06' W 080°07'0 0.0
2017-Mar-29 06:33N 26°06' W 080°07'0 0.0
2017-Mar-29 05:27N 26°06' W 080°07'0 0.0
2017-Mar-29 04:33N 26°06' W 080°07'0 0.0
2017-Mar-29 03:33N 26°06' W 080°07'0 0.0
2017-Mar-29 02:33N 26°06' W 080°07'0 0.0
2017-Mar-29 01:33N 26°06' W 080°07'0 0.0
2017-Mar-29 00:33N 26°06' W 080°07'0 0.0
2017-Mar-28 23:33N 26°06' W 080°07'0 0.0
2017-Mar-28 22:33N 26°06' W 080°07'0 0.0
2017-Mar-28 21:33N 26°06' W 080°07'0 0.0
2017-Mar-28 20:33N 26°06' W 080°07'0 0.0
2017-Mar-28 19:33N 26°06' W 080°07'0 0.0
2017-Mar-28 18:24N 26°06' W 080°07'0 0.0
2017-Mar-28 17:30N 26°06' W 080°07'0 0.0
2017-Mar-28 16:30N 26°06' W 080°07'0 0.0
2017-Mar-28 15:33N 26°06' W 080°07'0 0.0
2017-Mar-28 14:33N 26°06' W 080°07'0 0.0
2017-Mar-28 13:33N 26°06' W 080°07'0 0.0
2017-Mar-28 12:30N 26°06' W 080°07'0 0.0
2017-Mar-28 11:30N 26°06' W 080°07'0 0.0
2017-Mar-28 10:33N 26°06' W 080°07'0 0.0
2017-Mar-28 09:30N 26°06' W 080°07'0 0.0
2017-Mar-28 08:33N 26°06' W 080°07'0 0.0
2017-Mar-28 07:33N 26°06' W 080°07'0 0.0
2017-Mar-28 06:33N 26°06' W 080°07'0 0.0
2017-Mar-28 05:33N 26°06' W 080°07'0 0.0
2017-Mar-28 04:33N 26°06' W 080°07'0 0.0
2017-Mar-28 03:30N 26°06' W 080°07'0 0.0
2017-Mar-28 02:33N 26°06' W 080°07'0 0.0
2017-Mar-28 01:33N 26°06' W 080°07'0 0.0
2017-Mar-28 00:30N 26°06' W 080°07'0 0.0
2017-Mar-27 23:30N 26°06' W 080°07'0 0.0
2017-Mar-27 22:33N 26°06' W 080°07'0 0.0
2017-Mar-27 21:33N 26°06' W 080°07'0 0.0
2017-Mar-27 20:33N 26°06' W 080°07'0 0.0
2017-Mar-27 19:33N 26°06' W 080°07'0 0.0
2017-Mar-27 18:33N 26°06' W 080°07'0 0.0
2017-Mar-27 17:33N 26°06' W 080°07'0 0.0
2017-Mar-27 16:33N 26°06' W 080°07'0 0.0
2017-Mar-27 15:33N 26°06' W 080°07'0 0.0
2017-Mar-27 14:33N 26°06' W 080°07'0 0.0
2017-Mar-27 13:30N 26°06' W 080°07'0 0.0
2017-Mar-27 12:33N 26°06' W 080°07'0 0.0
2017-Mar-27 11:33N 26°06' W 080°07'0 0.0
2017-Mar-27 10:33N 26°06' W 080°07'0 0.0
2017-Mar-27 09:33N 26°06' W 080°07'0 0.0
2017-Mar-27 08:33N 26°06' W 080°07'0 0.0
2017-Mar-27 07:27N 26°06' W 080°07'0 0.0
2017-Mar-27 06:33N 26°06' W 080°07'0 0.0
2017-Mar-27 05:33N 26°06' W 080°07'0 0.0
2017-Mar-27 04:30N 26°06' W 080°07'0 0.0
2017-Mar-27 03:33N 26°06' W 080°07'0 0.0
2017-Mar-27 02:33N 26°06' W 080°07'0 0.0
2017-Mar-27 01:33N 26°06' W 080°07'0 0.0
2017-Mar-27 00:33N 26°06' W 080°07'0 0.0
2017-Mar-26 23:33N 26°06' W 080°07'0 0.0
2017-Mar-26 22:33N 26°06' W 080°07'0 0.0
2017-Mar-26 21:33N 26°06' W 080°07'0 0.0
2017-Mar-26 20:30N 26°06' W 080°07'0 0.0
2017-Mar-26 19:33N 26°06' W 080°07'0 0.0
2017-Mar-26 18:30N 26°06' W 080°07'0 0.0
2017-Mar-26 17:30N 26°06' W 080°07'0 0.0
2017-Mar-26 16:30N 26°06' W 080°07'0 0.0
2017-Mar-26 15:30N 26°06' W 080°07'0 0.0
2017-Mar-26 14:33N 26°06' W 080°07'0 0.0
2017-Mar-26 13:33N 26°06' W 080°07'0 0.0
2017-Mar-26 12:30N 26°06' W 080°07'0 0.0
2017-Mar-26 11:30N 26°06' W 080°07'0 0.0
2017-Mar-26 10:30N 26°06' W 080°07'0 0.0
2017-Mar-26 09:24N 26°06' W 080°07'0 0.0
2017-Mar-26 08:33N 26°06' W 080°07'0 0.0
2017-Mar-26 07:33N 26°06' W 080°07'  
Track history (hours):
 
Tides and Currents Weather Stations Pressure Air Temp Water Temp Dewpoint Dewpoint Depression Visibility Wind Speed Wind Dir Waves Ship Positions

Oliver Hazard Perry

Owner: Oliver Hazard Perry Rhode Island, Newport, RI. More information available from US FCC via Universal Licensing System and Coast Guard Vessel Documentation Center.

Last reported at 2017-Apr-05 06:35 UTC. Time now 2017-Apr-26 11:45 UTC.
Position N 28°49' W 077°03'.
Warning: this ship's position is 21 days out of date.

Length 61 m; draft 3.5 m.

Type: Sailing vessel. MMSI: 367658110.

Date/timePositionNaut miles runAvg speedWind from/ knotsBaromVisibWave heightAir tempDewpointWater temp
2017-Apr-05 06:35N 28°49' W 077°03'1 6.8
2017-Apr-05 06:29N 28°49' W 077°03'9 6.7
2017-Apr-05 05:08N 28°46' W 077°13'204 5.9
2017-Apr-03 18:36N 26°23' W 079°57'1 8.1
2017-Apr-03 18:25N 26°21' W 079°58'4 8.5
2017-Apr-03 18:00N 26°18' W 079°59'4 8.6
2017-Apr-03 17:30N 26°14' W 080°01'4 8.4
2017-Apr-03 17:00N 26°10' W 080°02'510.0
2017-Apr-03 16:30N 26°06' W 080°05'2 3.8
2017-Apr-03 16:00N 26°06' W 080°07'0 0.1
2017-Apr-03 15:28N 26°06' W 080°07'0 0.0
2017-Apr-03 14:58N 26°06' W 080°07'0 0.0
2017-Apr-03 14:28N 26°06' W 080°07'0 0.0
2017-Apr-03 13:24N 26°06' W 080°07'0 0.0
2017-Apr-03 12:58N 26°06' W 080°07'0 0.0
2017-Apr-03 12:28N 26°06' W 080°07'0 0.0
2017-Apr-03 11:55N 26°06' W 080°07'0 0.0
2017-Apr-03 11:30N 26°06' W 080°07'0 0.0
2017-Apr-03 10:55N 26°06' W 080°07'0 0.0
2017-Apr-03 10:25N 26°06' W 080°07'0 0.0
2017-Apr-03 10:00N 26°06' W 080°07'0 0.0
2017-Apr-03 09:25N 26°06' W 080°07'0 0.0
2017-Apr-03 08:55N 26°06' W 080°07'0 0.0
2017-Apr-03 08:25N 26°06' W 080°07'0 0.0
2017-Apr-03 07:57N 26°06' W 080°07'0 0.0
2017-Apr-03 07:28N 26°06' W 080°07'0 0.0
2017-Apr-03 06:31N 26°06' W 080°07'0 0.1
2017-Apr-03 06:28N 26°06' W 080°07'0 0.0
2017-Apr-03 05:58N 26°06' W 080°07'0 0.0
2017-Apr-03 05:31N 26°06' W 080°07'0 0.0
2017-Apr-03 05:00N 26°06' W 080°07'0 0.0
2017-Apr-03 04:31N 26°06' W 080°07'0 0.0
2017-Apr-03 03:58N 26°06' W 080°07'0 0.0
2017-Apr-03 03:28N 26°06' W 080°07'0 0.0
2017-Apr-03 02:55N 26°06' W 080°07'0 0.0
2017-Apr-03 02:30N 26°06' W 080°07'0 0.0
2017-Apr-03 01:58N 26°06' W 080°07'0 0.0
2017-Apr-03 01:19N 26°06' W 080°07'0 0.0
2017-Apr-03 00:58N 26°06' W 080°07'0 0.0
2017-Apr-03 00:25N 26°06' W 080°07'0 0.0
2017-Apr-02 23:49N 26°06' W 080°07'0 0.0
2017-Apr-02 23:25N 26°06' W 080°07'0 0.0
2017-Apr-02 23:00N 26°06' W 080°07'0 0.0
2017-Apr-02 22:19N 26°06' W 080°07'0 0.0
2017-Apr-02 22:00N 26°06' W 080°07'0 0.0
2017-Apr-02 21:31N 26°06' W 080°07'0 0.0
2017-Apr-02 21:01N 26°06' W 080°07'0 0.0
2017-Apr-02 20:25N 26°06' W 080°07'0 0.0
2017-Apr-02 19:57N 26°06' W 080°07'0 0.0
2017-Apr-02 19:30N 26°06' W 080°07'0 0.0
2017-Apr-02 19:00N 26°06' W 080°07'0 0.0
2017-Apr-02 18:30N 26°06' W 080°07'0 0.0
2017-Apr-02 18:00N 26°06' W 080°07'0 0.0
2017-Apr-02 17:30N 26°06' W 080°07'0 0.0
2017-Apr-02 17:00N 26°06' W 080°07'0 0.0
2017-Apr-02 16:18N 26°06' W 080°07'0 0.0
2017-Apr-02 16:00N 26°06' W 080°07'0 0.0
2017-Apr-02 15:30N 26°06' W 080°07'0 0.0
2017-Apr-02 15:00N 26°06' W 080°07'0 0.0
2017-Apr-02 14:00N 26°06' W 080°07'0 0.0
2017-Apr-02 13:27N 26°06' W 080°07'0 0.0
2017-Apr-02 13:01N 26°06' W 080°07'0 0.0
2017-Apr-02 12:30N 26°06' W 080°07'0 0.0
2017-Apr-02 12:00N 26°06' W 080°07'0 0.0
2017-Apr-02 11:30N 26°06' W 080°07'0 0.0
2017-Apr-02 11:00N 26°06' W 080°07'0 0.0
2017-Apr-02 10:30N 26°06' W 080°07'0 0.0
2017-Apr-02 10:00N 26°06' W 080°07'0 0.0
2017-Apr-02 09:30N 26°06' W 080°07'0 0.0
2017-Apr-02 09:00N 26°06' W 080°07'0 0.0
2017-Apr-02 08:30N 26°06' W 080°07'0 0.0
2017-Apr-02 08:01N 26°06' W 080°07'0 0.0
2017-Apr-02 07:30N 26°06' W 080°07'0 0.0
2017-Apr-02 07:00N 26°06' W 080°07'0 0.0
2017-Apr-02 06:30N 26°06' W 080°07'0 0.0
2017-Apr-02 06:00N 26°06' W 080°07'0 0.0
2017-Apr-02 05:30N 26°06' W 080°07'0 0.0
2017-Apr-02 05:00N 26°06' W 080°07'0 0.0
2017-Apr-02 04:30N 26°06' W 080°07'0 0.0
2017-Apr-02 04:00N 26°06' W 080°07'0 0.0
2017-Apr-02 03:30N 26°06' W 080°07'0 0.0
2017-Apr-02 02:57N 26°06' W 080°07'0 0.0
2017-Apr-02 02:30N 26°06' W 080°07'0 0.0
2017-Apr-02 02:00N 26°06' W 080°07'0 0.0
2017-Apr-02 01:30N 26°06' W 080°07'0 0.0
2017-Apr-02 01:00N 26°06' W 080°07'0 0.0
2017-Apr-02 00:30N 26°06' W 080°07'0 0.0
2017-Apr-02 00:00N 26°06' W 080°07'0 0.0
2017-Apr-01 23:30N 26°06' W 080°07'0 0.0
2017-Apr-01 23:00N 26°06' W 080°07'0 0.0
2017-Apr-01 22:30N 26°06' W 080°07'0 0.0
2017-Apr-01 22:00N 26°06' W 080°07'0 0.0
2017-Apr-01 21:30N 26°06' W 080°07'0 0.0
2017-Apr-01 21:00N 26°06' W 080°07'0 0.0
2017-Apr-01 20:30N 26°06' W 080°07'0 0.0
2017-Apr-01 20:00N 26°06' W 080°07'0 0.0
2017-Apr-01 19:30N 26°06' W 080°07'0 0.0
2017-Apr-01 19:00N 26°06' W 080°07'0 0.0
2017-Apr-01 18:30N 26°06' W 080°07'0 0.0
2017-Apr-01 17:30N 26°06' W 080°07'0 0.0
2017-Apr-01 17:00N 26°06' W 080°07'0 0.0
2017-Apr-01 16:30N 26°06' W 080°07'0 0.0
2017-Apr-01 16:00N 26°06' W 080°07'0 0.0
2017-Apr-01 15:24N 26°06' W 080°07'0 0.0
2017-Apr-01 15:00N 26°06' W 080°07'0 0.0
2017-Apr-01 14:00N 26°06' W 080°07'0 0.0
2017-Apr-01 13:27N 26°06' W 080°07'0 0.0
2017-Apr-01 13:00N 26°06' W 080°07'0 0.0
2017-Apr-01 12:30N 26°06' W 080°07'0 0.0
2017-Apr-01 12:00N 26°06' W 080°07'0 0.0
2017-Apr-01 11:30N 26°06' W 080°07'0 0.0
2017-Apr-01 11:00N 26°06' W 080°07'0 0.0
2017-Apr-01 10:30N 26°06' W 080°07'0 0.0
2017-Apr-01 10:00N 26°06' W 080°07'0 0.0
2017-Apr-01 09:30N 26°06' W 080°07'0 0.0
2017-Apr-01 09:00N 26°06' W 080°07'0 0.0
2017-Apr-01 08:30N 26°06' W 080°07'0 0.0
2017-Apr-01 08:00N 26°06' W 080°07'0 0.0
2017-Apr-01 07:30N 26°06' W 080°07'0 0.0
2017-Apr-01 07:00N 26°06' W 080°07'0 0.0
2017-Apr-01 06:30N 26°06' W 080°07'0 0.0
2017-Apr-01 06:00N 26°06' W 080°07'0 0.0
2017-Apr-01 05:30N 26°06' W 080°07'0 0.0
2017-Apr-01 05:00N 26°06' W 080°07'0 0.0
2017-Apr-01 04:30N 26°06' W 080°07'0 0.0
2017-Apr-01 04:00N 26°06' W 080°07'0 0.0
2017-Apr-01 03:30N 26°06' W 080°07'0 0.0
2017-Apr-01 03:00N 26°06' W 080°07'0 0.0
2017-Apr-01 02:30N 26°06' W 080°07'0 0.0
2017-Apr-01 02:00N 26°06' W 080°07'0 0.0
2017-Apr-01 01:30N 26°06' W 080°07'0 0.0
2017-Apr-01 01:00N 26°06' W 080°07'0 0.0
2017-Apr-01 00:30N 26°06' W 080°07'0 0.0
2017-Apr-01 00:00N 26°06' W 080°07'0 0.0
2017-Mar-31 23:30N 26°06' W 080°07'0 0.0
2017-Mar-31 23:00N 26°06' W 080°07'0 0.0
2017-Mar-31 22:27N 26°06' W 080°07'0 0.0
2017-Mar-31 22:00N 26°06' W 080°07'0 0.0
2017-Mar-31 21:30N 26°06' W 080°07'0 0.0
2017-Mar-31 21:00N 26°06' W 080°07'0 0.0
2017-Mar-31 20:30N 26°06' W 080°07'0 0.0
2017-Mar-31 20:00N 26°06' W 080°07'0 0.0
2017-Mar-31 19:30N 26°06' W 080°07'0 0.0
2017-Mar-31 19:00N 26°06' W 080°07'0 0.0
2017-Mar-31 18:30N 26°06' W 080°07'0 0.0
2017-Mar-31 18:00N 26°06' W 080°07'0 0.0
2017-Mar-31 17:30N 26°06' W 080°07'0 0.0
2017-Mar-31 17:00N 26°06' W 080°07'0 0.0
2017-Mar-31 16:30N 26°06' W 080°07'0 0.0
2017-Mar-31 16:00N 26°06' W 080°07'0 0.0
2017-Mar-31 15:27N 26°06' W 080°07'0 0.0
2017-Mar-31 15:00N 26°06' W 080°07'0 0.0
2017-Mar-31 14:00N 26°06' W 080°07'0 0.0
2017-Mar-31 13:30N 26°06' W 080°07'0 0.0
2017-Mar-31 13:00N 26°06' W 080°07'0 0.0
2017-Mar-31 12:30N 26°06' W 080°07'0 0.0
2017-Mar-31 12:00N 26°06' W 080°07'0 0.0
2017-Mar-31 11:24N 26°06' W 080°07'0 0.0
2017-Mar-31 10:54N 26°06' W 080°07'0 0.0
2017-Mar-31 10:18N 26°06' W 080°07'0 0.0
2017-Mar-31 10:00N 26°06' W 080°07'0 0.0
2017-Mar-31 09:30N 26°06' W 080°07'0 0.0
2017-Mar-31 09:00N 26°06' W 080°07'0 0.0
2017-Mar-31 08:30N 26°06' W 080°07'0 0.0
2017-Mar-31 08:00N 26°06' W 080°07'0 0.0
2017-Mar-31 07:30N 26°06' W 080°07'0 0.0
2017-Mar-31 06:57N 26°06' W 080°07'0 0.0
2017-Mar-31 06:30N 26°06' W 080°07'0 0.0
2017-Mar-31 05:57N 26°06' W 080°07'0 0.0
2017-Mar-31 05:27N 26°06' W 080°07'0 0.0
2017-Mar-31 04:57N 26°06' W 080°07'0 0.0
2017-Mar-31 04:30N 26°06' W 080°07'0 0.0
2017-Mar-31 03:30N 26°06' W 080°07'0 0.0
2017-Mar-31 02:33N 26°06' W 080°07'0 0.0
2017-Mar-31 01:33N 26°06' W 080°07'0 0.0
2017-Mar-31 00:33N 26°06' W 080°07'0 0.0
2017-Mar-30 23:33N 26°06' W 080°07'0 0.0
2017-Mar-30 22:33N 26°06' W 080°07'0 0.0
2017-Mar-30 21:33N 26°06' W 080°07'0 0.0
2017-Mar-30 20:33N 26°06' W 080°07'0 0.0
2017-Mar-30 19:33N 26°06' W 080°07'0 0.0
2017-Mar-30 18:33N 26°06' W 080°07'0 0.0
2017-Mar-30 17:33N 26°06' W 080°07'0 0.0
2017-Mar-30 16:33N 26°06' W 080°07'0 0.0
2017-Mar-30 15:33N 26°06' W 080°07'0 0.0
2017-Mar-30 14:33N 26°06' W 080°07'0 0.0
2017-Mar-30 13:33N 26°06' W 080°07'0 0.0
2017-Mar-30 12:33N 26°06' W 080°07'0 0.0
2017-Mar-30 11:30N 26°06' W 080°07'0 0.0
2017-Mar-30 10:30N 26°06' W 080°07'0 0.0
2017-Mar-30 09:33N 26°06' W 080°07'0 0.0
2017-Mar-30 08:30N 26°06' W 080°07'0 0.0
2017-Mar-30 07:33N 26°06' W 080°07'0 0.0
2017-Mar-30 06:33N 26°06' W 080°07'0 0.0
2017-Mar-30 05:33N 26°06' W 080°07'0 0.0
2017-Mar-30 04:33N 26°06' W 080°07'0 0.0
2017-Mar-30 03:33N 26°06' W 080°07'0 0.0
2017-Mar-30 02:33N 26°06' W 080°07'0 0.0
2017-Mar-30 01:33N 26°06' W 080°07'0 0.0
2017-Mar-30 00:33N 26°06' W 080°07'0 0.0
2017-Mar-29 23:33N 26°06' W 080°07'0 0.0
2017-Mar-29 22:33N 26°06' W 080°07'0 0.0
2017-Mar-29 21:33N 26°06' W 080°07'0 0.0
2017-Mar-29 20:33N 26°06' W 080°07'0 0.0
2017-Mar-29 19:33N 26°06' W 080°07'0 0.0
2017-Mar-29 18:33N 26°06' W 080°07'0 0.0
2017-Mar-29 17:33N 26°06' W 080°07'0 0.0
2017-Mar-29 16:33N 26°06' W 080°07'0 0.0
2017-Mar-29 15:30N 26°06' W 080°07'0 0.0
2017-Mar-29 14:33N 26°06' W 080°07'0 0.0
2017-Mar-29 13:30N 26°06' W 080°07'0 0.0
2017-Mar-29 12:33N 26°06' W 080°07'0 0.0
2017-Mar-29 11:33N 26°06' W 080°07'0 0.0
2017-Mar-29 10:33N 26°06' W 080°07'0 0.0
2017-Mar-29 09:27N 26°06' W 080°07'0 0.0
2017-Mar-29 08:33N 26°06' W 080°07'0 0.0
2017-Mar-29 07:33N 26°06' W 080°07'0 0.0
2017-Mar-29 06:33N 26°06' W 080°07'0 0.0
2017-Mar-29 05:27N 26°06' W 080°07'0 0.0
2017-Mar-29 04:33N 26°06' W 080°07'0 0.0
2017-Mar-29 03:33N 26°06' W 080°07'0 0.0
2017-Mar-29 02:33N 26°06' W 080°07'0 0.0
2017-Mar-29 01:33N 26°06' W 080°07'0 0.0
2017-Mar-29 00:33N 26°06' W 080°07'0 0.0
2017-Mar-28 23:33N 26°06' W 080°07'0 0.0
2017-Mar-28 22:33N 26°06' W 080°07'0 0.0
2017-Mar-28 21:33N 26°06' W 080°07'0 0.0
2017-Mar-28 20:33N 26°06' W 080°07'0 0.0
2017-Mar-28 19:33N 26°06' W 080°07'0 0.0
2017-Mar-28 18:24N 26°06' W 080°07'0 0.0
2017-Mar-28 17:30N 26°06' W 080°07'0 0.0
2017-Mar-28 16:30N 26°06' W 080°07'0 0.0
2017-Mar-28 15:33N 26°06' W 080°07'0 0.0
2017-Mar-28 14:33N 26°06' W 080°07'0 0.0
2017-Mar-28 13:33N 26°06' W 080°07'0 0.0
2017-Mar-28 12:30N 26°06' W 080°07'0 0.0
2017-Mar-28 11:30N 26°06' W 080°07'0 0.0
2017-Mar-28 10:33N 26°06' W 080°07'0 0.0
2017-Mar-28 09:30N 26°06' W 080°07'0 0.0
2017-Mar-28 08:33N 26°06' W 080°07'0 0.0
2017-Mar-28 07:33N 26°06' W 080°07'0 0.0
2017-Mar-28 06:33N 26°06' W 080°07'0 0.0
2017-Mar-28 05:33N 26°06' W 080°07'0 0.0
2017-Mar-28 04:33N 26°06' W 080°07'0 0.0
2017-Mar-28 03:30N 26°06' W 080°07'0 0.0
2017-Mar-28 02:33N 26°06' W 080°07'0 0.0
2017-Mar-28 01:33N 26°06' W 080°07'0 0.0
2017-Mar-28 00:30N 26°06' W 080°07'0 0.0
2017-Mar-27 23:30N 26°06' W 080°07'0 0.0
2017-Mar-27 22:33N 26°06' W 080°07'0 0.0
2017-Mar-27 21:33N 26°06' W 080°07'0 0.0
2017-Mar-27 20:33N 26°06' W 080°07'0 0.0
2017-Mar-27 19:33N 26°06' W 080°07'0 0.0
2017-Mar-27 18:33N 26°06' W 080°07'0 0.0
2017-Mar-27 17:33N 26°06' W 080°07'0 0.0
2017-Mar-27 16:33N 26°06' W 080°07'0 0.0
2017-Mar-27 15:33N 26°06' W 080°07'0 0.0
2017-Mar-27 14:33N 26°06' W 080°07'0 0.0
2017-Mar-27 13:30N 26°06' W 080°07'0 0.0
2017-Mar-27 12:33N 26°06' W 080°07'0 0.0
2017-Mar-27 11:33N 26°06' W 080°07'0 0.0
2017-Mar-27 10:33N 26°06' W 080°07'0 0.0
2017-Mar-27 09:33N 26°06' W 080°07'0 0.0
2017-Mar-27 08:33N 26°06' W 080°07'0 0.0
2017-Mar-27 07:27N 26°06' W 080°07'0 0.0
2017-Mar-27 06:33N 26°06' W 080°07'0 0.0
2017-Mar-27 05:33N 26°06' W 080°07'0 0.0
2017-Mar-27 04:30N 26°06' W 080°07'0 0.0
2017-Mar-27 03:33N 26°06' W 080°07'0 0.0
2017-Mar-27 02:33N 26°06' W 080°07'0 0.0
2017-Mar-27 01:33N 26°06' W 080°07'0 0.0
2017-Mar-27 00:33N 26°06' W 080°07'0 0.0
2017-Mar-26 23:33N 26°06' W 080°07'0 0.0
2017-Mar-26 22:33N 26°06' W 080°07'0 0.0
2017-Mar-26 21:33N 26°06' W 080°07'0 0.0
2017-Mar-26 20:30N 26°06' W 080°07'0 0.0
2017-Mar-26 19:33N 26°06' W 080°07'0 0.0
2017-Mar-26 18:30N 26°06' W 080°07'0 0.0
2017-Mar-26 17:30N 26°06' W 080°07'0 0.0
2017-Mar-26 16:30N 26°06' W 080°07'0 0.0
2017-Mar-26 15:30N 26°06' W 080°07'0 0.0
2017-Mar-26 14:33N 26°06' W 080°07'0 0.0
2017-Mar-26 13:33N 26°06' W 080°07'0 0.0
2017-Mar-26 12:30N 26°06' W 080°07'0 0.0
2017-Mar-26 11:30N 26°06' W 080°07'0 0.0
2017-Mar-26 10:30N 26°06' W 080°07'0 0.0
2017-Mar-26 09:24N 26°06' W 080°07'0 0.0
2017-Mar-26 08:33N 26°06' W 080°07'0 0.0
2017-Mar-26 07:33N 26°06' W 080°07'  

Dump ship's entire track history